Cohoes, New York
Current Conditions -  °F | °C
As of 8:51 AM on Sunday 25 Jan 2015 (Local Time) from KALB Reporting Station
Light Snow Light Snow  
Wind Chill: 16°   Ceiling: 3900
Heat Index: 30°   Visibility: 10mi
Dew Point: 17°   Wind: 26mph
Humidity: 59%   Direction: 310°NW
Pressure: 29.68"   Gusts: 35mph
Location:  42.77°N, 73.7°W
Report Text: KALB 251351Z 31023G30KT 10SM -SN OVC039 M01/M08 A2968 RMK AO2 PK WND 28033/1333 SNB02 PRESRR SLP053 BINOVC OCNL DRSN P0000 T10111083
Loading
Personal Weather Stations






























Interactive Weather Map New forecast layout! Learn more

10-Day Weather Forecast

Advertisements
Track Severe Weather on mobile